createdAt,value
2023-04-12T00:00:04.373Z,10.44
2023-04-12T00:02:35.900Z,10.43
2023-04-12T00:05:09.772Z,10.46
2023-04-12T00:07:39.537Z,10.35
2023-04-12T00:10:09.199Z,10.43
2023-04-12T00:12:38.077Z,10.42
2023-04-12T00:15:10.036Z,10.33
2023-04-12T00:17:37.178Z,10.38
2023-04-12T00:20:12.130Z,10.32
2023-04-12T00:22:42.734Z,10.32
2023-04-12T00:25:09.785Z,10.29
2023-04-12T00:27:37.029Z,10.29
2023-04-12T00:30:04.241Z,10.26
2023-04-12T00:32:33.214Z,10.21
2023-04-12T00:35:04.913Z,10.20
2023-04-12T00:37:36.278Z,10.14
2023-04-12T00:40:03.415Z,10.17
2023-04-12T00:42:30.246Z,10.14
2023-04-12T00:44:57.034Z,10.08
2023-04-12T00:47:23.821Z,10.03
2023-04-12T00:49:53.079Z,10.06
2023-04-12T00:52:22.439Z,9.92
2023-04-12T00:54:53.723Z,10.03
2023-04-12T00:57:25.534Z,10.03
2023-04-12T00:59:55.146Z,9.96
2023-04-12T01:02:22.104Z,9.91
2023-04-12T01:04:51.467Z,9.92
2023-04-12T01:07:54.120Z,9.95
2023-04-12T01:10:37.689Z,9.87
2023-04-12T01:13:35.283Z,9.89
2023-04-12T01:16:25.251Z,9.86
2023-04-12T01:18:58.140Z,9.84
2023-04-12T01:21:36.255Z,9.73
2023-04-12T01:24:16.151Z,9.82
2023-04-12T01:26:45.037Z,9.77
2023-04-12T01:29:15.483Z,9.82
2023-04-12T01:31:58.296Z,9.70
2023-04-12T01:34:28.603Z,9.72
2023-04-12T01:36:59.556Z,9.78
2023-04-12T01:39:27.713Z,9.76
2023-04-12T01:41:54.448Z,9.67
2023-04-12T01:44:23.832Z,9.77
2023-04-12T01:46:54.276Z,9.68
2023-04-12T01:49:25.145Z,9.69
2023-04-12T01:51:58.031Z,9.70
2023-04-12T01:54:30.674Z,9.65
2023-04-12T01:57:01.544Z,9.68
2023-04-12T01:59:39.626Z,9.50
2023-04-12T02:02:12.059Z,9.51
2023-04-12T02:04:39.436Z,9.46
2023-04-12T02:07:06.550Z,9.40
2023-04-12T02:09:38.894Z,9.58
2023-04-12T02:12:09.912Z,9.57
2023-04-12T02:14:40.287Z,9.47
2023-04-12T02:17:08.835Z,9.52
2023-04-12T02:19:36.068Z,9.43
2023-04-12T02:22:04.658Z,9.51
2023-04-12T02:24:34.645Z,9.52
2023-04-12T02:27:01.612Z,9.33
2023-04-12T02:29:28.392Z,9.45
2023-04-12T02:31:57.488Z,9.50
2023-04-12T02:34:24.280Z,9.39
2023-04-12T02:36:53.490Z,9.49
2023-04-12T02:39:22.372Z,9.48
2023-04-12T02:41:49.342Z,9.37
2023-04-12T02:44:18.325Z,9.43
2023-04-12T02:46:45.125Z,9.47
2023-04-12T02:49:12.186Z,9.45
2023-04-12T02:51:42.732Z,9.46
2023-04-12T02:54:10.888Z,9.33
2023-04-12T02:56:39.156Z,9.44
2023-04-12T02:59:07.096Z,9.24
2023-04-12T03:01:34.144Z,9.40
2023-04-12T03:04:03.201Z,9.42
2023-04-12T03:06:30.336Z,9.40
2023-04-12T03:08:58.253Z,9.38
2023-04-12T03:11:25.097Z,9.41
2023-04-12T03:13:52.776Z,9.35
2023-04-12T03:16:25.807Z,9.41
2023-04-12T03:18:56.997Z,9.41
2023-04-12T03:21:23.879Z,9.40
2023-04-12T03:23:51.404Z,9.38
2023-04-12T03:26:20.662Z,9.38
2023-04-12T03:28:52.639Z,9.36
2023-04-12T03:31:21.655Z,9.37
2023-04-12T03:33:51.666Z,9.30
2023-04-12T03:36:18.591Z,9.21
2023-04-12T03:38:45.841Z,9.18
2023-04-12T03:41:12.857Z,9.29
2023-04-12T03:43:40.745Z,9.26
2023-04-12T03:46:10.025Z,9.21
2023-04-12T03:48:37.987Z,9.13
2023-04-12T03:51:08.346Z,9.22
2023-04-12T03:53:35.309Z,9.26
2023-04-12T03:56:04.999Z,9.23
2023-04-12T03:58:34.548Z,9.13
2023-04-12T04:01:06.349Z,9.10
2023-04-12T04:03:35.278Z,9.25
2023-04-12T04:06:05.001Z,9.14
2023-04-12T04:08:33.443Z,9.25
2023-04-12T04:11:01.314Z,9.03
2023-04-12T04:13:28.477Z,9.18
2023-04-12T04:16:06.734Z,9.07
2023-04-12T04:18:36.312Z,9.13
2023-04-12T04:21:10.128Z,9.18
2023-04-12T04:23:54.100Z,9.21
2023-04-12T04:26:33.737Z,9.20
2023-04-12T04:29:16.782Z,9.01
2023-04-12T04:31:46.357Z,9.18
2023-04-12T04:34:17.693Z,9.12
2023-04-12T04:36:52.543Z,9.01
2023-04-12T04:39:19.215Z,9.03
2023-04-12T04:41:46.793Z,9.17
2023-04-12T04:44:14.493Z,9.14
2023-04-12T04:46:41.272Z,9.14
2023-04-12T04:49:07.925Z,9.05
2023-04-12T04:51:34.670Z,9.08
2023-04-12T04:54:02.334Z,9.11
2023-04-12T04:56:29.028Z,9.19
2023-04-12T04:58:57.234Z,9.18
2023-04-12T05:01:28.501Z,9.18
2023-04-12T05:03:55.950Z,9.15
2023-04-12T05:06:23.472Z,9.11
2023-04-12T05:08:50.265Z,9.11
2023-04-12T05:11:17.093Z,9.20
2023-04-12T05:13:45.966Z,9.18
2023-04-12T05:16:12.837Z,9.08
2023-04-12T05:18:39.498Z,9.19
2023-04-12T05:21:06.719Z,9.18
2023-04-12T05:23:37.880Z,9.20
2023-04-12T05:26:04.929Z,9.20
2023-04-12T05:28:31.947Z,9.19
2023-04-12T05:30:58.835Z,9.09
2023-04-12T05:33:25.921Z,9.22
2023-04-12T05:35:52.736Z,9.25
2023-04-12T05:38:19.740Z,9.18
2023-04-12T05:40:50.239Z,9.26
2023-04-12T05:43:17.843Z,9.26
2023-04-12T05:45:44.714Z,9.26
2023-04-12T05:48:14.617Z,9.24
2023-04-12T05:50:51.154Z,9.20
2023-04-12T05:53:18.428Z,9.28
2023-04-12T05:55:47.949Z,9.20
2023-04-12T05:58:14.782Z,9.32
2023-04-12T06:00:46.852Z,9.34
2023-04-12T06:03:13.853Z,9.36
2023-04-12T06:05:40.773Z,9.38
2023-04-12T06:08:08.567Z,9.19
2023-04-12T06:10:38.723Z,9.36
2023-04-12T06:13:09.048Z,9.37
2023-04-12T06:15:46.198Z,9.35
2023-04-12T06:18:20.093Z,9.35
2023-04-12T06:20:46.901Z,9.38
2023-04-12T06:23:49.632Z,9.29
2023-04-12T06:26:40.346Z,9.38
2023-04-12T06:29:07.290Z,9.34
2023-04-12T06:31:37.477Z,9.39
2023-04-12T06:34:16.750Z,9.38
2023-04-12T06:36:47.946Z,9.35
2023-04-12T06:39:21.122Z,9.42
2023-04-12T06:41:49.367Z,9.40
2023-04-12T06:44:22.224Z,9.47
2023-04-12T06:46:53.351Z,9.49
2023-04-12T06:49:42.895Z,9.53
2023-04-12T06:52:14.297Z,9.55
2023-04-12T06:54:55.116Z,9.58
2023-04-12T06:57:54.274Z,9.56
2023-04-12T07:00:44.830Z,9.66
2023-04-12T07:03:11.946Z,9.70
2023-04-12T07:05:39.543Z,9.66
2023-04-12T07:08:09.546Z,9.82
2023-04-12T07:10:38.739Z,9.80
2023-04-12T07:13:08.258Z,9.66
2023-04-12T07:15:37.411Z,9.89
2023-04-12T07:18:04.395Z,9.80
2023-04-12T07:20:31.217Z,9.81
2023-04-12T07:22:58.423Z,9.91
2023-04-12T07:25:27.601Z,9.93
2023-04-12T07:27:54.882Z,9.68
2023-04-12T07:30:22.280Z,9.67
2023-04-12T07:32:49.617Z,10.07
2023-04-12T07:35:21.136Z,10.31
2023-04-12T07:37:48.093Z,10.44
2023-04-12T07:40:17.486Z,10.57
2023-04-12T07:42:44.584Z,10.60
2023-04-12T07:45:11.819Z,10.67
2023-04-12T07:47:51.714Z,10.59
2023-04-12T07:53:43.403Z,10.60
2023-04-12T07:56:29.085Z,10.52
2023-04-12T07:59:22.746Z,10.70
2023-04-12T08:02:49.319Z,10.83
2023-04-12T08:10:54.747Z,10.89
2023-04-12T08:14:09.935Z,10.92
2023-04-12T08:16:37.044Z,10.64
2023-04-12T08:19:04.446Z,10.86
2023-04-12T08:21:31.309Z,10.76
2023-04-12T08:23:58.554Z,10.94
2023-04-12T08:26:27.012Z,11.14
2023-04-12T08:28:54.429Z,11.34
2023-04-12T08:31:22.835Z,11.53
2023-04-12T08:33:49.849Z,11.58
2023-04-12T08:36:16.951Z,11.75
2023-04-12T08:38:46.212Z,11.99
2023-04-12T08:41:14.178Z,12.34
2023-04-12T08:43:45.733Z,14.69
2023-04-12T08:46:16.004Z,16.01
2023-04-12T08:48:46.652Z,16.95
2023-04-12T08:51:16.574Z,16.71
2023-04-12T08:53:46.356Z,16.40
2023-04-12T08:56:14.091Z,16.17
2023-04-12T08:58:45.898Z,16.20
2023-04-12T09:01:14.914Z,16.21
2023-04-12T09:03:44.009Z,16.56
2023-04-12T09:06:14.212Z,16.41
2023-04-12T09:08:58.275Z,16.19
2023-04-12T09:11:27.281Z,15.97
2023-04-12T09:13:55.771Z,15.85
2023-04-12T09:16:36.756Z,15.58
2023-04-12T09:19:06.758Z,15.51
2023-04-12T09:21:37.086Z,16.04
2023-04-12T09:24:11.660Z,16.79
2023-04-12T09:26:42.515Z,16.72
2023-04-12T09:29:24.752Z,16.22
2023-04-12T09:32:04.718Z,15.89
2023-04-12T09:34:32.735Z,15.42
2023-04-12T09:36:59.635Z,15.14
2023-04-12T09:39:35.665Z,15.24
2023-04-12T09:42:14.834Z,15.67
2023-04-12T09:44:45.141Z,15.97
2023-04-12T09:47:11.760Z,15.92
2023-04-12T09:49:45.005Z,15.97
2023-04-12T09:52:13.883Z,16.30
2023-04-12T09:54:46.058Z,16.20
2023-04-12T09:57:15.959Z,16.44
2023-04-12T09:59:45.812Z,16.33
2023-04-12T10:02:23.151Z,15.86
2023-04-12T10:04:53.935Z,15.53
2023-04-12T10:07:22.842Z,15.28
2023-04-12T10:09:52.351Z,15.19
2023-04-12T10:12:19.598Z,15.11
2023-04-12T10:14:48.030Z,15.06
2023-04-12T10:17:15.302Z,14.89
2023-04-12T10:19:45.149Z,14.90
2023-04-12T10:22:13.892Z,14.90
2023-04-12T10:24:41.140Z,15.01
2023-04-12T10:27:09.252Z,15.09
2023-04-12T10:29:39.197Z,15.17
2023-04-12T10:33:43.150Z,15.36
2023-04-12T10:35:17.687Z,15.39
2023-04-12T10:38:07.413Z,15.59
2023-04-12T10:41:23.093Z,15.80
2023-04-12T10:43:52.119Z,15.98
2023-04-12T10:46:41.631Z,16.10
2023-04-12T10:49:28.668Z,16.04
2023-04-12T10:52:07.566Z,15.88
2023-04-12T10:54:38.871Z,15.82
2023-04-12T10:57:34.542Z,15.82
2023-04-12T11:00:07.521Z,15.85
2023-04-12T11:02:40.709Z,15.72
2023-04-12T11:05:11.515Z,15.34
2023-04-12T11:07:46.925Z,15.26
2023-04-12T11:10:23.532Z,15.12
2023-04-12T11:12:57.567Z,14.76
2023-04-12T11:15:31.290Z,14.79
2023-04-12T11:18:01.407Z,14.42
2023-04-12T11:20:29.501Z,14.55
2023-04-12T11:22:56.919Z,14.51
2023-04-12T11:25:24.286Z,14.45
2023-04-12T11:27:55.921Z,14.62
2023-04-12T11:30:23.843Z,14.50
2023-04-12T11:33:10.644Z,14.38
2023-04-12T11:35:48.832Z,14.21
2023-04-12T11:38:38.028Z,14.14
2023-04-12T11:41:07.441Z,14.15
2023-04-12T11:43:40.384Z,14.13
2023-04-12T11:46:10.203Z,14.37
2023-04-12T11:48:40.171Z,14.48
2023-04-12T11:51:33.852Z,14.75
2023-04-12T11:54:12.629Z,15.12
2023-04-12T11:56:42.921Z,15.29
2023-04-12T11:59:11.189Z,15.38
2023-04-12T12:01:44.179Z,15.33
2023-04-12T12:04:13.053Z,15.50
2023-04-12T12:06:41.279Z,15.17
2023-04-12T12:09:13.427Z,15.44
2023-04-12T12:12:12.377Z,15.38
2023-04-12T12:14:44.902Z,15.24
2023-04-12T12:17:24.223Z,15.12
2023-04-12T12:19:51.310Z,15.00
2023-04-12T12:22:20.351Z,14.85
2023-04-12T12:25:00.245Z,14.68
2023-04-12T12:27:36.238Z,14.50
2023-04-12T12:30:05.373Z,14.35
2023-04-12T12:32:37.595Z,14.13
2023-04-12T12:35:17.185Z,13.96
2023-04-12T12:38:00.442Z,13.80
2023-04-12T12:40:40.892Z,13.73
2023-04-12T12:43:53.292Z,13.62
2023-04-12T12:46:21.567Z,13.53
2023-04-12T12:48:48.984Z,13.63
2023-04-12T12:51:20.945Z,13.77
2023-04-12T12:53:48.554Z,14.05
2023-04-12T12:56:20.930Z,14.68
2023-04-12T12:58:47.897Z,14.81
2023-04-12T13:01:14.761Z,14.84
2023-04-12T13:03:42.031Z,14.95
2023-04-12T13:06:09.150Z,14.93
2023-04-12T13:08:37.237Z,14.76
2023-04-12T13:11:04.313Z,14.54
2023-04-12T13:13:30.986Z,13.82
2023-04-12T13:15:57.900Z,13.15
2023-04-12T13:18:24.770Z,12.71
2023-04-12T13:20:51.569Z,12.51
2023-04-12T13:23:26.317Z,12.47
2023-04-12T13:26:19.425Z,12.38
2023-04-12T13:28:46.337Z,12.14
2023-04-12T13:31:36.563Z,12.29
2023-04-12T13:34:09.689Z,12.22
2023-04-12T13:36:36.949Z,12.25
2023-04-12T13:39:03.981Z,12.18
2023-04-12T13:41:34.311Z,12.33
2023-04-12T13:44:04.708Z,12.35
2023-04-12T13:46:32.865Z,12.32
2023-04-12T13:49:02.130Z,12.42
2023-04-12T13:51:32.828Z,12.47
2023-04-12T13:54:01.984Z,12.60
2023-04-12T13:56:31.040Z,12.78
2023-04-12T13:58:59.607Z,12.92
2023-04-12T14:01:28.689Z,12.92
2023-04-12T14:03:55.913Z,13.15
2023-04-12T14:06:22.773Z,13.22
2023-04-12T14:08:52.970Z,13.17
2023-04-12T14:11:19.982Z,13.14
2023-04-12T14:13:46.750Z,13.22
2023-04-12T14:16:13.484Z,13.26
2023-04-12T14:18:42.586Z,13.24
2023-04-12T14:21:09.866Z,13.21
2023-04-12T14:23:37.133Z,13.08
2023-04-12T14:26:06.094Z,13.03
2023-04-12T14:28:38.129Z,12.95
2023-04-12T14:31:06.576Z,12.84
2023-04-12T14:33:33.776Z,12.48
2023-04-12T14:36:13.812Z,12.39
2023-04-12T14:38:44.127Z,11.86
2023-04-12T14:41:14.224Z,11.15
2023-04-12T14:43:41.020Z,10.33
2023-04-12T14:46:11.834Z,9.98
2023-04-12T14:48:38.722Z,9.68
2023-04-12T14:51:05.582Z,9.42
2023-04-12T14:53:32.184Z,9.43
2023-04-12T14:56:00.631Z,9.52
2023-04-12T14:58:29.401Z,9.56
2023-04-12T15:01:00.372Z,9.75
2023-04-12T15:03:30.006Z,9.75
2023-04-12T15:05:58.348Z,9.91
2023-04-12T15:08:24.889Z,10.03
2023-04-12T15:10:51.950Z,10.06
2023-04-12T15:13:20.409Z,10.14
2023-04-12T15:15:48.105Z,10.06
2023-04-12T15:18:15.447Z,10.16
2023-04-12T15:20:42.805Z,10.19
2023-04-12T15:23:12.524Z,10.28
2023-04-12T15:25:44.069Z,10.48
2023-04-12T15:28:10.633Z,10.10
2023-04-12T15:30:40.005Z,10.67
2023-04-12T15:33:06.941Z,10.76
2023-04-12T15:35:33.650Z,10.84
2023-04-12T15:38:00.401Z,10.93
2023-04-12T15:40:27.205Z,10.93
2023-04-12T15:42:53.879Z,10.83
2023-04-12T15:45:20.508Z,11.17
2023-04-12T15:47:49.337Z,11.13
2023-04-12T15:50:16.134Z,11.36
2023-04-12T15:52:44.279Z,11.57
2023-04-12T15:55:11.710Z,11.82
2023-04-12T15:57:38.498Z,12.04
2023-04-12T16:00:13.828Z,12.00
2023-04-12T16:02:53.699Z,12.00
2023-04-12T16:05:21.319Z,12.01
2023-04-12T16:07:51.082Z,12.08
2023-04-12T16:10:22.478Z,11.92
2023-04-12T16:12:50.375Z,11.81
2023-04-12T16:15:19.450Z,11.80
2023-04-12T16:17:49.735Z,11.84
2023-04-12T16:20:22.823Z,11.97
2023-04-12T16:22:56.790Z,11.91
2023-04-12T16:25:24.668Z,11.79
2023-04-12T16:27:53.108Z,11.76
2023-04-12T16:30:20.104Z,11.96
2023-04-12T16:32:49.597Z,11.89
2023-04-12T16:35:18.668Z,11.99
2023-04-12T16:37:50.655Z,12.02
2023-04-12T16:40:18.082Z,11.92
2023-04-12T16:42:45.152Z,11.85
2023-04-12T16:45:18.707Z,11.95
2023-04-12T16:47:48.299Z,11.76
2023-04-12T16:50:15.911Z,11.78
2023-04-12T16:52:44.896Z,11.65
2023-04-12T16:55:13.578Z,11.62
2023-04-12T16:57:43.027Z,11.63
2023-04-12T17:00:21.367Z,11.63
2023-04-12T17:02:57.095Z,11.59
2023-04-12T17:05:26.038Z,11.50
2023-04-12T17:07:55.508Z,11.38
2023-04-12T17:10:24.708Z,11.33
2023-04-12T17:12:53.985Z,10.98
2023-04-12T17:15:22.010Z,11.19
2023-04-12T17:17:50.917Z,11.10
2023-04-12T17:20:22.535Z,11.11
2023-04-12T17:22:50.092Z,11.00
2023-04-12T17:25:21.184Z,10.94
2023-04-12T17:27:54.695Z,10.83
2023-04-12T17:30:22.295Z,10.79
2023-04-12T17:32:53.021Z,10.71
2023-04-12T17:35:21.037Z,10.70
2023-04-12T17:37:49.532Z,10.69
2023-04-12T17:40:17.576Z,10.78
2023-04-12T17:42:45.113Z,10.73
2023-04-12T17:45:15.068Z,10.59
2023-04-12T17:47:44.106Z,10.44
2023-04-12T17:50:14.210Z,10.36
2023-04-12T17:52:43.411Z,10.28
2023-04-12T17:55:12.866Z,10.17
2023-04-12T17:57:40.892Z,10.09
2023-04-12T18:00:11.756Z,9.85
2023-04-12T18:02:39.460Z,9.93
2023-04-12T18:05:09.123Z,9.84
2023-04-12T18:07:36.035Z,9.77
2023-04-12T18:10:03.338Z,9.69
2023-04-12T18:12:35.279Z,9.62
2023-04-12T18:15:03.549Z,9.55
2023-04-12T18:17:32.491Z,9.48
2023-04-12T18:20:02.728Z,9.42
2023-04-12T18:22:29.814Z,9.75
2023-04-12T18:24:56.627Z,9.48
2023-04-12T18:27:23.196Z,9.30
2023-04-12T18:29:49.776Z,9.29
2023-04-12T18:32:18.786Z,9.23
2023-04-12T18:34:45.672Z,9.05
2023-04-12T18:37:14.662Z,9.03
2023-04-12T18:39:42.779Z,9.00
2023-04-12T18:42:12.449Z,8.99
2023-04-12T18:44:42.179Z,8.85
2023-04-12T18:47:08.965Z,8.71
2023-04-12T18:49:35.645Z,8.69
2023-04-12T18:52:02.216Z,8.71
2023-04-12T18:54:29.085Z,8.68
2023-04-12T18:56:57.914Z,8.53
2023-04-12T18:59:27.468Z,8.55
2023-04-12T19:01:54.060Z,8.46
2023-04-12T19:04:20.938Z,8.50
2023-04-12T19:06:47.568Z,8.40
2023-04-12T19:09:16.477Z,8.37
2023-04-12T19:11:43.168Z,8.34
2023-04-12T19:14:09.823Z,8.31
2023-04-12T19:16:36.875Z,8.23
2023-04-12T19:19:03.748Z,8.24
2023-04-12T19:21:31.563Z,8.16
2023-04-12T19:24:02.879Z,8.10
2023-04-12T19:26:32.077Z,8.12
2023-04-12T19:28:58.963Z,8.10
2023-04-12T19:31:26.166Z,8.11
2023-04-12T19:33:57.817Z,8.10
2023-04-12T19:36:24.901Z,8.01
2023-04-12T19:38:52.226Z,7.79
2023-04-12T19:41:20.423Z,7.92
2023-04-12T19:43:47.767Z,7.89
2023-04-12T19:46:14.679Z,7.84
2023-04-12T19:48:41.767Z,7.75
2023-04-12T19:51:11.100Z,7.68
2023-04-12T19:53:37.875Z,7.65
2023-04-12T19:56:05.806Z,7.76
2023-04-12T19:58:33.793Z,7.68
2023-04-12T20:01:04.781Z,7.63
2023-04-12T20:03:31.623Z,7.67
2023-04-12T20:05:59.472Z,7.62
2023-04-12T20:08:29.657Z,7.52
2023-04-12T20:10:56.417Z,7.54
2023-04-12T20:13:23.295Z,7.40
2023-04-12T20:15:51.290Z,7.43
2023-04-12T20:18:18.241Z,7.49
2023-04-12T20:20:49.793Z,7.48
2023-04-12T20:23:18.919Z,7.42
2023-04-12T20:25:49.049Z,7.26
2023-04-12T20:28:18.840Z,7.33
2023-04-12T20:30:48.224Z,7.38
2023-04-12T20:33:17.460Z,6.44
2023-04-12T20:35:47.160Z,7.18
2023-04-12T20:38:14.240Z,7.12
2023-04-12T20:40:43.150Z,7.17
2023-04-12T20:43:10.605Z,7.10
2023-04-12T20:45:38.121Z,7.09
2023-04-12T20:48:05.523Z,7.11
2023-04-12T20:50:33.136Z,6.98
2023-04-12T20:53:01.226Z,7.14
2023-04-12T20:55:34.170Z,7.16
2023-04-12T20:58:05.356Z,6.77
2023-04-12T21:00:34.015Z,7.11
2023-04-12T21:03:04.303Z,7.16
2023-04-12T21:05:33.931Z,6.95
2023-04-12T21:08:01.200Z,7.06
2023-04-12T21:10:28.332Z,7.17
2023-04-12T21:12:55.552Z,7.19
2023-04-12T21:15:22.678Z,7.20
2023-04-12T21:17:54.733Z,7.22
2023-04-12T21:20:26.714Z,7.26
2023-04-12T21:22:53.807Z,7.28
2023-04-12T21:25:21.657Z,7.36
2023-04-12T21:27:49.815Z,7.39
2023-04-12T21:30:17.556Z,7.52
2023-04-12T21:32:44.811Z,7.34
2023-04-12T21:35:16.639Z,7.47
2023-04-12T21:37:46.114Z,7.59
2023-04-12T21:40:13.362Z,6.77
2023-04-12T21:42:45.096Z,7.68
2023-04-12T21:45:14.880Z,7.72
2023-04-12T21:47:43.037Z,7.77
2023-04-12T21:50:12.928Z,7.82
2023-04-12T21:52:41.727Z,7.86
2023-04-12T21:55:08.602Z,7.80
2023-04-12T21:57:36.018Z,7.94
2023-04-12T22:00:05.458Z,7.89
2023-04-12T22:02:32.580Z,7.97
2023-04-12T22:04:59.873Z,7.99
2023-04-12T22:07:26.813Z,7.97
2023-04-12T22:09:58.279Z,7.94
2023-04-12T22:12:25.754Z,8.06
2023-04-12T22:14:57.866Z,7.95
2023-04-12T22:17:25.017Z,8.07
2023-04-12T22:19:56.652Z,8.08
2023-04-12T22:22:29.189Z,7.96
2023-04-12T22:24:56.738Z,7.91
2023-04-12T22:27:26.680Z,8.05
2023-04-12T22:29:53.810Z,7.94
2023-04-12T22:32:23.156Z,8.00
2023-04-12T22:34:58.045Z,8.01
2023-04-12T22:37:35.471Z,7.61
2023-04-12T22:40:02.605Z,7.97
2023-04-12T22:42:31.863Z,7.94
2023-04-12T22:44:58.614Z,7.97
2023-04-12T22:47:28.872Z,7.75
2023-04-12T22:50:01.475Z,7.93
2023-04-12T22:52:31.967Z,7.85
2023-04-12T22:54:59.221Z,7.78
2023-04-12T22:57:36.688Z,7.86
2023-04-12T23:00:07.679Z,7.86
2023-04-12T23:02:34.996Z,7.84
2023-04-12T23:05:04.671Z,7.73
2023-04-12T23:07:31.560Z,7.76
2023-04-12T23:09:58.293Z,7.69
2023-04-12T23:12:27.653Z,7.64
2023-04-12T23:14:55.776Z,7.59
2023-04-12T23:17:23.585Z,7.68
2023-04-12T23:19:50.620Z,7.58
2023-04-12T23:22:48.556Z,7.62
2023-04-12T23:25:24.394Z,7.53
2023-04-12T23:27:51.537Z,7.63
2023-04-12T23:30:19.030Z,7.56
2023-04-12T23:32:49.220Z,7.38
2023-04-12T23:35:16.261Z,7.53
2023-04-12T23:37:43.454Z,7.53
2023-04-12T23:40:14.698Z,7.48
2023-04-12T23:42:44.202Z,7.49
2023-04-12T23:45:16.070Z,7.33
2023-04-12T23:47:43.074Z,7.56
2023-04-12T23:50:10.733Z,7.46
2023-04-12T23:52:37.499Z,7.53
2023-04-12T23:55:04.793Z,7.52
2023-04-12T23:57:31.717Z,7.41
2023-04-12T23:59:58.528Z,7.42
